createdAt,value
2018-11-25T00:00:25.634Z,57.70
2018-11-25T00:00:56.731Z,57.70
2018-11-25T00:01:27.817Z,57.70
2018-11-25T00:01:58.916Z,57.70
2018-11-25T00:02:30.001Z,57.80
2018-11-25T00:03:01.088Z,57.80
2018-11-25T00:03:32.192Z,57.90
2018-11-25T00:04:03.268Z,57.90
2018-11-25T00:04:34.357Z,57.90
2018-11-25T00:05:05.458Z,58.10
2018-11-25T00:05:36.565Z,58.10
2018-11-25T00:06:07.669Z,58.00
2018-11-25T00:06:38.766Z,58.00
2018-11-25T00:07:09.865Z,58.00
2018-11-25T00:07:40.964Z,57.70
2018-11-25T00:08:12.094Z,57.50
2018-11-25T00:08:43.174Z,57.30
2018-11-25T00:09:14.258Z,57.40
2018-11-25T00:09:45.342Z,57.30
2018-11-25T00:10:16.430Z,57.50
2018-11-25T00:10:47.518Z,57.40
2018-11-25T00:11:18.609Z,57.40
2018-11-25T00:11:49.705Z,57.40
2018-11-25T00:12:20.802Z,57.50
2018-11-25T00:12:51.895Z,57.50
2018-11-25T00:13:22.990Z,57.50
2018-11-25T00:13:54.078Z,57.50
2018-11-25T00:14:25.170Z,57.60
2018-11-25T00:14:56.262Z,57.60
2018-11-25T00:15:27.350Z,57.60
2018-11-25T00:15:58.462Z,57.90
2018-11-25T00:16:29.659Z,57.60
2018-11-25T00:17:00.755Z,57.60
2018-11-25T00:17:31.846Z,57.60
2018-11-25T00:18:02.935Z,57.60
2018-11-25T00:18:34.026Z,57.60
2018-11-25T00:19:05.138Z,57.60
2018-11-25T00:19:36.235Z,57.60
2018-11-25T00:20:07.334Z,57.50
2018-11-25T00:20:38.441Z,57.50
2018-11-25T00:21:09.541Z,57.50
2018-11-25T00:21:40.640Z,57.50
2018-11-25T00:22:11.723Z,57.50
2018-11-25T00:22:42.840Z,57.50
2018-11-25T00:23:13.931Z,57.60
2018-11-25T00:23:45.019Z,57.60
2018-11-25T00:24:16.116Z,57.60
2018-11-25T00:24:47.214Z,57.60
2018-11-25T00:25:18.318Z,57.60
2018-11-25T00:25:49.412Z,57.70
2018-11-25T00:26:20.512Z,57.60
2018-11-25T00:26:51.607Z,57.60
2018-11-25T00:27:22.706Z,58.20
2018-11-25T00:27:53.802Z,57.70
2018-11-25T00:28:24.897Z,57.60
2018-11-25T00:28:56.014Z,57.60
2018-11-25T00:29:27.113Z,57.60
2018-11-25T00:29:58.200Z,57.50
2018-11-25T00:30:29.303Z,57.50
2018-11-25T00:31:00.391Z,57.60
2018-11-25T00:31:31.497Z,57.50
2018-11-25T00:32:02.591Z,57.60
2018-11-25T00:32:33.693Z,57.20
2018-11-25T00:33:04.785Z,57.60
2018-11-25T00:33:35.871Z,57.50
2018-11-25T00:34:06.962Z,57.50
2018-11-25T00:34:38.053Z,57.60
2018-11-25T00:35:09.143Z,57.60
2018-11-25T00:35:40.226Z,57.60
2018-11-25T00:36:11.310Z,57.60
2018-11-25T00:36:42.413Z,57.60
2018-11-25T00:37:13.498Z,57.60
2018-11-25T00:37:48.568Z,57.60
2018-11-25T00:38:15.727Z,57.60
2018-11-25T00:38:46.815Z,57.60
2018-11-25T00:39:17.904Z,57.60
2018-11-25T00:39:48.997Z,57.60
2018-11-25T00:40:20.079Z,57.60
2018-11-25T00:40:51.168Z,57.60
2018-11-25T00:41:22.258Z,57.50
2018-11-25T00:41:53.351Z,57.60
2018-11-25T00:42:24.492Z,57.60
2018-11-25T00:42:55.584Z,57.50
2018-11-25T00:43:26.672Z,57.50
2018-11-25T00:43:57.768Z,57.50
2018-11-25T00:44:28.851Z,57.50
2018-11-25T00:44:59.936Z,57.50
2018-11-25T00:45:31.035Z,57.50
2018-11-25T00:46:02.119Z,57.50
2018-11-25T00:46:33.238Z,57.50
2018-11-25T00:47:04.339Z,57.60
2018-11-25T00:47:35.443Z,58.20
2018-11-25T00:48:06.548Z,57.60
2018-11-25T00:48:37.646Z,57.60
2018-11-25T00:49:08.743Z,57.60
2018-11-25T00:49:39.832Z,57.70
2018-11-25T00:50:10.936Z,57.70
2018-11-25T00:50:42.014Z,57.60
2018-11-25T00:51:13.117Z,57.60
2018-11-25T00:51:44.223Z,57.60
2018-11-25T00:52:15.306Z,57.60
2018-11-25T00:52:46.393Z,57.60
2018-11-25T00:53:17.480Z,57.60
2018-11-25T00:53:48.577Z,57.60
2018-11-25T00:54:19.673Z,57.60
2018-11-25T00:54:50.748Z,57.50
2018-11-25T00:55:21.835Z,57.60
2018-11-25T00:55:52.921Z,57.50
2018-11-25T00:56:24.017Z,57.60
2018-11-25T00:56:55.220Z,57.50
2018-11-25T00:57:26.316Z,57.60
2018-11-25T00:57:57.406Z,57.60
2018-11-25T00:58:28.642Z,57.50
2018-11-25T00:58:59.731Z,57.60
2018-11-25T00:59:30.826Z,57.50
2018-11-25T01:00:01.917Z,57.50
2018-11-25T01:00:33.010Z,57.60
2018-11-25T01:01:04.093Z,57.60
2018-11-25T01:01:35.277Z,57.50
2018-11-25T01:02:06.375Z,57.60
2018-11-25T01:02:37.469Z,57.60
2018-11-25T01:03:08.564Z,57.60
2018-11-25T01:03:39.666Z,57.60
2018-11-25T01:04:10.749Z,57.60
2018-11-25T01:04:41.874Z,57.60
2018-11-25T01:05:12.962Z,57.60
2018-11-25T01:05:44.051Z,57.60
2018-11-25T01:06:15.183Z,57.60
2018-11-25T01:06:46.292Z,57.60
2018-11-25T01:07:17.389Z,57.70
2018-11-25T01:07:48.481Z,58.20
2018-11-25T01:08:19.572Z,57.50
2018-11-25T01:08:50.659Z,57.50
2018-11-25T01:09:21.742Z,57.60
2018-11-25T01:09:52.835Z,57.60
2018-11-25T01:10:23.926Z,57.60
2018-11-25T01:10:55.021Z,57.60
2018-11-25T01:11:26.107Z,58.20
2018-11-25T01:11:57.275Z,57.70
2018-11-25T01:12:28.367Z,57.60
2018-11-25T01:12:59.454Z,58.50
2018-11-25T01:13:30.560Z,57.60
2018-11-25T01:14:01.657Z,57.70
2018-11-25T01:14:32.761Z,57.60
2018-11-25T01:15:03.852Z,57.70
2018-11-25T01:15:34.938Z,57.60
2018-11-25T01:16:06.041Z,57.70
2018-11-25T01:16:37.236Z,57.60
2018-11-25T01:17:08.334Z,57.60
2018-11-25T01:17:39.436Z,57.60
2018-11-25T01:18:10.573Z,57.60
2018-11-25T01:18:41.680Z,57.60
2018-11-25T01:19:12.771Z,57.60
2018-11-25T01:19:43.865Z,57.50
2018-11-25T01:20:14.956Z,57.50
2018-11-25T01:20:46.046Z,57.60
2018-11-25T01:21:17.141Z,57.60
2018-11-25T01:21:48.233Z,57.50
2018-11-25T01:22:19.329Z,57.60
2018-11-25T01:22:50.417Z,57.60
2018-11-25T01:23:21.560Z,57.60
2018-11-25T01:23:52.659Z,57.60
2018-11-25T01:24:23.749Z,57.60
2018-11-25T01:24:54.834Z,57.60
2018-11-25T01:25:25.927Z,57.50
2018-11-25T01:25:57.066Z,57.50
2018-11-25T01:26:28.154Z,57.60
2018-11-25T01:26:59.249Z,57.50
2018-11-25T01:27:30.347Z,57.50
2018-11-25T01:28:01.456Z,57.40
2018-11-25T01:28:32.543Z,57.50
2018-11-25T01:29:03.634Z,57.50
2018-11-25T01:29:34.723Z,57.50
2018-11-25T01:30:05.819Z,57.50
2018-11-25T01:30:36.909Z,57.60
2018-11-25T01:31:08.004Z,57.60
2018-11-25T01:31:39.091Z,57.60
2018-11-25T01:32:10.210Z,57.60
2018-11-25T01:32:41.311Z,57.60
2018-11-25T01:33:12.417Z,57.60
2018-11-25T01:33:43.502Z,57.60
2018-11-25T01:34:14.594Z,57.60
2018-11-25T01:34:45.689Z,57.60
2018-11-25T01:35:16.788Z,57.60
2018-11-25T01:35:47.876Z,57.60
2018-11-25T01:36:18.975Z,58.20
2018-11-25T01:36:50.065Z,57.50
2018-11-25T01:37:21.165Z,57.50
2018-11-25T01:37:52.264Z,57.50
2018-11-25T01:38:23.357Z,57.50
2018-11-25T01:38:54.455Z,57.50
2018-11-25T01:39:25.759Z,57.50
2018-11-25T01:39:56.864Z,57.50
2018-11-25T01:40:27.946Z,57.50
2018-11-25T01:40:59.052Z,57.50
2018-11-25T01:41:30.134Z,57.50
2018-11-25T01:42:01.229Z,57.50
2018-11-25T01:42:32.340Z,57.50
2018-11-25T01:43:03.441Z,57.50
2018-11-25T01:43:34.552Z,57.50
2018-11-25T01:44:05.646Z,57.50
2018-11-25T01:44:36.745Z,57.50
2018-11-25T01:45:07.833Z,57.50
2018-11-25T01:45:38.930Z,57.50
2018-11-25T01:46:10.017Z,57.60
2018-11-25T01:46:41.101Z,57.60
2018-11-25T01:47:12.189Z,57.60
2018-11-25T01:47:43.293Z,57.60
2018-11-25T01:48:14.376Z,57.60
2018-11-25T01:48:45.465Z,57.60
2018-11-25T01:49:16.562Z,57.60
2018-11-25T01:49:47.658Z,57.60
2018-11-25T01:50:18.747Z,57.60
2018-11-25T01:50:49.859Z,57.60
2018-11-25T01:51:20.950Z,57.60
2018-11-25T01:51:52.043Z,57.60
2018-11-25T01:52:23.131Z,57.60
2018-11-25T01:52:54.226Z,57.60
2018-11-25T01:53:25.316Z,57.60
2018-11-25T01:53:56.408Z,57.60
2018-11-25T01:54:27.509Z,57.60
2018-11-25T01:54:58.605Z,57.50
2018-11-25T01:55:29.699Z,57.50
2018-11-25T01:56:00.791Z,57.60
2018-11-25T01:56:31.899Z,57.50
2018-11-25T01:57:02.998Z,57.50
2018-11-25T01:57:34.103Z,57.50
2018-11-25T01:58:05.215Z,57.50
2018-11-25T01:58:36.316Z,57.50
2018-11-25T01:59:07.416Z,57.50
2018-11-25T01:59:38.505Z,57.50
2018-11-25T02:00:09.596Z,57.50
2018-11-25T02:00:40.719Z,57.50
2018-11-25T02:01:11.820Z,57.50
2018-11-25T02:01:42.915Z,57.50
2018-11-25T02:02:14.019Z,57.50
2018-11-25T02:02:45.131Z,57.40
2018-11-25T02:03:16.229Z,57.40
2018-11-25T02:03:47.327Z,57.40
2018-11-25T02:04:18.416Z,57.40
2018-11-25T02:04:49.504Z,57.40
2018-11-25T02:05:20.727Z,57.40
2018-11-25T02:05:51.824Z,57.40
2018-11-25T02:06:22.968Z,57.40
2018-11-25T02:06:54.056Z,57.50
2018-11-25T02:07:26.102Z,57.50
2018-11-25T02:07:56.281Z,57.40
2018-11-25T02:08:27.456Z,57.50
2018-11-25T02:08:58.549Z,57.50
2018-11-25T02:09:29.638Z,57.50
2018-11-25T02:10:00.733Z,57.50
2018-11-25T02:10:31.835Z,57.50
2018-11-25T02:11:02.918Z,57.50
2018-11-25T02:11:34.011Z,57.50
2018-11-25T02:12:05.094Z,57.60
2018-11-25T02:12:36.193Z,57.50
2018-11-25T02:13:07.278Z,57.50
2018-11-25T02:13:38.375Z,57.50
2018-11-25T02:14:09.482Z,57.50
2018-11-25T02:14:40.577Z,57.50
2018-11-25T02:15:11.668Z,57.50
2018-11-25T02:15:42.754Z,57.50
2018-11-25T02:16:13.850Z,57.60
2018-11-25T02:16:44.942Z,57.60
2018-11-25T02:17:16.039Z,57.60
2018-11-25T02:17:47.147Z,57.60
2018-11-25T02:18:18.238Z,57.60
2018-11-25T02:18:49.336Z,57.60
2018-11-25T02:19:20.434Z,57.60
2018-11-25T02:19:51.524Z,57.60
2018-11-25T02:20:22.615Z,57.60
2018-11-25T02:20:53.708Z,57.60
2018-11-25T02:21:24.807Z,57.60
2018-11-25T02:21:55.899Z,57.50
2018-11-25T02:22:26.995Z,57.50
2018-11-25T02:22:58.092Z,57.50
2018-11-25T02:23:29.179Z,57.50
2018-11-25T02:24:00.268Z,57.50
2018-11-25T02:24:31.379Z,57.50
2018-11-25T02:25:02.472Z,57.50
2018-11-25T02:25:33.559Z,57.50
2018-11-25T02:26:04.655Z,57.40
2018-11-25T02:26:35.748Z,57.50
2018-11-25T02:27:06.840Z,57.50
2018-11-25T02:27:37.935Z,57.50
2018-11-25T02:28:09.027Z,57.50
2018-11-25T02:28:40.125Z,57.50
2018-11-25T02:29:11.220Z,57.50
2018-11-25T02:29:42.324Z,57.50
2018-11-25T02:30:13.555Z,57.50
2018-11-25T02:30:44.650Z,57.50
2018-11-25T02:31:15.753Z,57.50
2018-11-25T02:31:46.861Z,57.50
2018-11-25T02:32:17.957Z,57.50
2018-11-25T02:32:49.054Z,57.50
2018-11-25T02:33:20.166Z,57.50
2018-11-25T02:33:51.265Z,57.50
2018-11-25T02:34:22.361Z,57.50
2018-11-25T02:34:53.454Z,57.50
2018-11-25T02:35:24.549Z,57.50
2018-11-25T02:35:55.642Z,57.50
2018-11-25T02:36:26.781Z,57.50
2018-11-25T02:36:57.886Z,57.50
2018-11-25T02:37:28.974Z,57.50
2018-11-25T02:38:00.063Z,57.50
2018-11-25T02:38:31.185Z,57.50
2018-11-25T02:39:02.274Z,57.50
2018-11-25T02:39:33.365Z,57.40
2018-11-25T02:40:04.470Z,57.40
2018-11-25T02:40:35.561Z,57.40
2018-11-25T02:41:06.650Z,57.40
2018-11-25T02:41:37.738Z,57.50
2018-11-25T02:42:08.825Z,57.60
2018-11-25T02:42:39.914Z,57.50
2018-11-25T02:43:11.009Z,57.50
2018-11-25T02:43:42.095Z,57.50
2018-11-25T02:44:13.178Z,57.60
2018-11-25T02:44:44.264Z,57.50
2018-11-25T02:45:15.359Z,57.50
2018-11-25T02:45:46.454Z,57.50
2018-11-25T02:46:17.554Z,57.50
2018-11-25T02:46:48.644Z,57.50
2018-11-25T02:47:19.735Z,57.50
2018-11-25T02:47:50.824Z,57.50
2018-11-25T02:48:21.919Z,57.40
2018-11-25T02:48:53.009Z,57.50
2018-11-25T02:49:24.094Z,57.50
2018-11-25T02:49:55.181Z,57.40
2018-11-25T02:50:26.270Z,57.40
2018-11-25T02:50:57.363Z,57.50
2018-11-25T02:51:28.463Z,57.50
2018-11-25T02:51:59.556Z,57.40
2018-11-25T02:52:30.639Z,57.50
2018-11-25T02:53:01.724Z,57.50
2018-11-25T02:53:32.820Z,57.50
2018-11-25T02:54:03.908Z,57.50
2018-11-25T02:54:35.004Z,57.50
2018-11-25T02:55:06.108Z,57.40
2018-11-25T02:55:37.199Z,57.50
2018-11-25T02:56:08.294Z,57.50
2018-11-25T02:56:39.373Z,57.40
2018-11-25T02:57:10.457Z,57.40
2018-11-25T02:57:41.546Z,57.50
2018-11-25T02:58:12.641Z,57.40
2018-11-25T02:58:43.728Z,57.50
2018-11-25T02:59:14.809Z,57.40
2018-11-25T02:59:45.898Z,57.40
2018-11-25T03:00:16.981Z,57.40
2018-11-25T03:00:48.097Z,57.40
2018-11-25T03:01:19.181Z,57.50
2018-11-25T03:01:50.274Z,57.50
2018-11-25T03:02:21.357Z,57.50
2018-11-25T03:02:52.441Z,57.50
2018-11-25T03:03:23.853Z,57.50
2018-11-25T03:03:55.013Z,57.50
2018-11-25T03:04:26.101Z,57.60
2018-11-25T03:04:57.199Z,57.50
2018-11-25T03:05:28.280Z,57.50
2018-11-25T03:05:59.362Z,57.50
2018-11-25T03:06:30.450Z,57.50
2018-11-25T03:07:01.538Z,57.50
2018-11-25T03:07:32.642Z,57.40
2018-11-25T03:08:03.737Z,57.40
2018-11-25T03:08:34.846Z,57.40
2018-11-25T03:09:05.926Z,57.50
2018-11-25T03:09:37.016Z,57.40
2018-11-25T03:10:08.104Z,57.40
2018-11-25T03:10:39.207Z,57.40
2018-11-25T03:11:10.299Z,57.40
2018-11-25T03:11:41.375Z,57.40
2018-11-25T03:12:12.468Z,57.40
2018-11-25T03:12:43.556Z,57.40
2018-11-25T03:13:14.663Z,57.40
2018-11-25T03:13:45.753Z,57.40
2018-11-25T03:14:16.856Z,57.40
2018-11-25T03:14:47.953Z,57.40
2018-11-25T03:15:19.062Z,57.40
2018-11-25T03:15:50.161Z,57.40
2018-11-25T03:16:21.265Z,57.40
2018-11-25T03:16:52.369Z,57.40
2018-11-25T03:17:23.468Z,57.40
2018-11-25T03:17:54.558Z,57.40
2018-11-25T03:18:25.648Z,57.40
2018-11-25T03:18:56.740Z,57.30
2018-11-25T03:19:27.837Z,57.40
2018-11-25T03:19:58.920Z,57.40
2018-11-25T03:20:30.107Z,57.40
2018-11-25T03:21:01.205Z,57.40
2018-11-25T03:21:32.298Z,57.40
2018-11-25T03:22:03.392Z,57.40
2018-11-25T03:22:34.489Z,57.40
2018-11-25T03:23:05.576Z,57.40
2018-11-25T03:23:36.694Z,57.40
2018-11-25T03:24:07.789Z,57.40
2018-11-25T03:24:38.877Z,57.40
2018-11-25T03:25:09.957Z,57.30
2018-11-25T03:25:41.049Z,57.30
2018-11-25T03:26:12.134Z,57.30
2018-11-25T03:26:43.218Z,57.30
2018-11-25T03:27:14.309Z,57.40
2018-11-25T03:27:45.391Z,57.40
2018-11-25T03:28:16.483Z,57.50
2018-11-25T03:28:47.583Z,57.40
2018-11-25T03:29:18.669Z,57.50
2018-11-25T03:29:49.756Z,57.50
2018-11-25T03:30:20.841Z,57.50
2018-11-25T03:30:51.938Z,57.40
2018-11-25T03:31:23.017Z,57.40
2018-11-25T03:31:54.105Z,57.40
2018-11-25T03:32:25.198Z,57.40
2018-11-25T03:32:56.287Z,57.40
2018-11-25T03:33:27.392Z,57.40
2018-11-25T03:33:58.477Z,57.40
2018-11-25T03:34:29.567Z,57.40
2018-11-25T03:35:00.654Z,57.40
2018-11-25T03:35:31.743Z,57.40
2018-11-25T03:36:02.831Z,57.40
2018-11-25T03:36:33.922Z,57.40
2018-11-25T03:37:05.014Z,57.40
2018-11-25T03:37:36.099Z,57.40
2018-11-25T03:38:07.194Z,57.40
2018-11-25T03:38:38.292Z,57.40
2018-11-25T03:39:09.378Z,57.40
2018-11-25T03:39:40.464Z,57.30
2018-11-25T03:40:11.547Z,57.30
2018-11-25T03:40:42.631Z,57.30
2018-11-25T03:41:13.723Z,57.30
2018-11-25T03:41:44.820Z,57.30
2018-11-25T03:42:15.900Z,57.30
2018-11-25T03:42:46.995Z,57.40
2018-11-25T03:43:18.081Z,57.30
2018-11-25T03:43:49.180Z,57.30
2018-11-25T03:44:20.280Z,57.30
2018-11-25T03:44:51.367Z,58.00
2018-11-25T03:45:22.460Z,57.30
2018-11-25T03:45:53.552Z,57.30
2018-11-25T03:46:24.635Z,57.40
2018-11-25T03:46:55.716Z,57.40
2018-11-25T03:47:26.802Z,57.40
2018-11-25T03:47:57.896Z,57.40
2018-11-25T03:48:28.994Z,57.40
2018-11-25T03:49:00.090Z,57.40
2018-11-25T03:49:31.188Z,57.40
2018-11-25T03:50:02.281Z,57.30
2018-11-25T03:50:33.378Z,57.40
2018-11-25T03:51:04.477Z,57.30
2018-11-25T03:51:35.570Z,57.30
2018-11-25T03:52:06.677Z,57.30
2018-11-25T03:52:37.761Z,57.30
2018-11-25T03:53:08.855Z,57.30
2018-11-25T03:53:39.956Z,57.30
2018-11-25T03:54:11.045Z,57.80
2018-11-25T03:54:42.133Z,57.30
2018-11-25T03:55:13.224Z,57.40
2018-11-25T03:55:44.313Z,57.40
2018-11-25T03:56:15.399Z,57.30
2018-11-25T03:56:46.486Z,57.40
2018-11-25T03:57:17.572Z,57.30
2018-11-25T03:57:48.654Z,57.30
2018-11-25T03:58:19.738Z,57.30
2018-11-25T03:58:50.890Z,57.30
2018-11-25T03:59:21.978Z,57.30
2018-11-25T03:59:53.067Z,57.30
2018-11-25T04:00:24.163Z,57.30
2018-11-25T04:00:55.260Z,57.30
2018-11-25T04:01:26.389Z,57.30
2018-11-25T04:01:57.471Z,57.30
2018-11-25T04:02:28.562Z,57.30
2018-11-25T04:02:59.646Z,57.30
2018-11-25T04:03:30.754Z,57.40
2018-11-25T04:04:01.852Z,57.30
2018-11-25T04:04:32.939Z,57.30
2018-11-25T04:05:04.023Z,57.30
2018-11-25T04:05:35.112Z,57.30
2018-11-25T04:06:06.211Z,57.30
2018-11-25T04:06:37.301Z,57.30
2018-11-25T04:07:08.397Z,57.30
2018-11-25T04:07:39.485Z,57.20
2018-11-25T04:08:10.584Z,57.30
2018-11-25T04:08:41.683Z,57.30
2018-11-25T04:09:12.788Z,57.30
2018-11-25T04:09:43.867Z,57.30
2018-11-25T04:10:14.943Z,57.30
2018-11-25T04:10:46.044Z,57.30
2018-11-25T04:11:17.122Z,57.30
2018-11-25T04:11:48.225Z,57.40
2018-11-25T04:12:19.324Z,57.30
2018-11-25T04:12:50.405Z,57.40
2018-11-25T04:13:21.497Z,57.40
2018-11-25T04:13:52.596Z,57.30
2018-11-25T04:14:23.682Z,57.40
2018-11-25T04:14:54.794Z,57.30
2018-11-25T04:15:25.899Z,57.30
2018-11-25T04:15:56.984Z,57.30
2018-11-25T04:16:28.065Z,57.30
2018-11-25T04:16:59.161Z,57.30
2018-11-25T04:17:30.241Z,57.30
2018-11-25T04:18:01.330Z,57.30
2018-11-25T04:18:32.433Z,57.30
2018-11-25T04:19:03.520Z,58.00
2018-11-25T04:19:34.607Z,57.30
2018-11-25T04:20:05.695Z,57.30
2018-11-25T04:20:36.785Z,57.30
2018-11-25T04:21:07.870Z,57.30
2018-11-25T04:21:38.954Z,57.30
2018-11-25T04:22:10.045Z,57.30
2018-11-25T04:22:41.133Z,57.30
2018-11-25T04:23:12.218Z,57.30
2018-11-25T04:23:43.322Z,57.30
2018-11-25T04:24:14.427Z,57.30
2018-11-25T04:24:45.519Z,57.30
2018-11-25T04:25:16.602Z,57.30
2018-11-25T04:25:47.693Z,57.30
2018-11-25T04:26:18.790Z,57.30
2018-11-25T04:26:49.879Z,57.30
2018-11-25T04:27:20.971Z,57.30
2018-11-25T04:27:52.055Z,57.30
2018-11-25T04:28:23.207Z,57.30
2018-11-25T04:28:54.299Z,57.30
2018-11-25T04:29:25.382Z,57.30
2018-11-25T04:29:56.471Z,57.30
2018-11-25T04:30:27.559Z,57.30
2018-11-25T04:30:58.647Z,57.30
2018-11-25T04:31:29.732Z,57.30
2018-11-25T04:32:00.823Z,57.30
2018-11-25T04:32:31.907Z,57.30
2018-11-25T04:33:03.007Z,57.30
2018-11-25T04:33:34.096Z,57.30
2018-11-25T04:34:05.187Z,57.30
2018-11-25T04:34:36.276Z,57.30
2018-11-25T04:35:07.352Z,57.30
2018-11-25T04:35:38.451Z,57.30
2018-11-25T04:36:09.544Z,57.90
2018-11-25T04:36:40.624Z,57.30
2018-11-25T04:37:11.716Z,57.30
2018-11-25T04:37:42.810Z,57.30
2018-11-25T04:38:13.912Z,57.30
2018-11-25T04:38:45.004Z,57.30
2018-11-25T04:39:16.100Z,57.30
2018-11-25T04:39:47.181Z,57.30
2018-11-25T04:40:18.266Z,57.30
2018-11-25T04:40:49.349Z,57.30
2018-11-25T04:41:20.432Z,57.30
2018-11-25T04:41:51.554Z,57.30
2018-11-25T04:42:22.639Z,57.30
2018-11-25T04:42:53.725Z,57.30
2018-11-25T04:43:24.804Z,57.40
2018-11-25T04:43:55.898Z,57.90
2018-11-25T04:44:26.982Z,57.30
2018-11-25T04:44:58.082Z,57.40
2018-11-25T04:45:29.176Z,57.30
2018-11-25T04:46:00.262Z,57.30
2018-11-25T04:46:31.353Z,57.30
2018-11-25T04:47:02.445Z,57.30
2018-11-25T04:47:33.561Z,57.30
2018-11-25T04:48:04.642Z,58.00
2018-11-25T04:48:35.726Z,57.30
2018-11-25T04:49:06.819Z,57.30
2018-11-25T04:49:37.918Z,57.30
2018-11-25T04:50:09.017Z,57.30
2018-11-25T04:50:40.102Z,57.30
2018-11-25T04:51:11.195Z,57.20
2018-11-25T04:51:42.286Z,57.30
2018-11-25T04:52:13.365Z,57.30
2018-11-25T04:52:44.454Z,57.30
2018-11-25T04:53:15.571Z,57.30
2018-11-25T04:53:46.664Z,57.30
2018-11-25T04:54:17.759Z,57.30
2018-11-25T04:54:48.842Z,57.30
2018-11-25T04:55:19.931Z,57.30
2018-11-25T04:55:51.019Z,57.30
2018-11-25T04:56:22.108Z,57.30
2018-11-25T04:56:53.191Z,57.30
2018-11-25T04:57:24.283Z,57.30
2018-11-25T04:57:55.376Z,57.30
2018-11-25T04:58:26.459Z,57.30
2018-11-25T04:58:57.559Z,57.30
2018-11-25T04:59:28.657Z,57.30
2018-11-25T04:59:59.740Z,57.30
2018-11-25T05:00:30.816Z,57.80
2018-11-25T05:01:01.917Z,57.30
2018-11-25T05:01:32.999Z,57.30
2018-11-25T05:02:04.084Z,57.30
2018-11-25T05:02:35.172Z,57.30
2018-11-25T05:03:06.261Z,57.30
2018-11-25T05:03:37.348Z,57.30
2018-11-25T05:04:08.436Z,57.30
2018-11-25T05:04:39.532Z,57.30
2018-11-25T05:05:10.621Z,57.30
2018-11-25T05:05:41.705Z,57.30
2018-11-25T05:06:12.796Z,57.30
2018-11-25T05:06:43.876Z,57.30
2018-11-25T05:07:14.970Z,57.30
2018-11-25T05:07:46.053Z,57.30
2018-11-25T05:08:17.145Z,57.20
2018-11-25T05:08:48.235Z,57.30
2018-11-25T05:09:19.337Z,57.20
2018-11-25T05:09:50.427Z,57.20
2018-11-25T05:10:21.507Z,57.20
2018-11-25T05:10:52.600Z,57.20
2018-11-25T05:11:23.684Z,57.20
2018-11-25T05:11:54.781Z,57.30
2018-11-25T05:12:25.865Z,57.20
2018-11-25T05:12:56.949Z,57.30
2018-11-25T05:13:28.035Z,57.20
2018-11-25T05:13:59.122Z,57.20
2018-11-25T05:14:30.211Z,57.30
2018-11-25T05:15:01.302Z,57.20
2018-11-25T05:15:32.386Z,57.20
2018-11-25T05:16:03.478Z,57.20
2018-11-25T05:16:34.566Z,57.30
2018-11-25T05:17:05.650Z,57.20
2018-11-25T05:17:36.734Z,57.20
2018-11-25T05:18:07.821Z,57.20
2018-11-25T05:18:38.918Z,57.20
2018-11-25T05:19:10.018Z,57.20
2018-11-25T05:19:41.103Z,57.20
2018-11-25T05:20:12.192Z,57.30
2018-11-25T05:20:43.277Z,57.20
2018-11-25T05:21:14.359Z,57.20
2018-11-25T05:21:45.443Z,57.20
2018-11-25T05:22:16.527Z,57.20
2018-11-25T05:22:47.606Z,57.20
2018-11-25T05:23:18.699Z,57.20
2018-11-25T05:23:49.798Z,57.20
2018-11-25T05:24:20.891Z,57.20
2018-11-25T05:24:51.981Z,57.20
2018-11-25T05:25:23.063Z,57.20
2018-11-25T05:25:54.153Z,57.30
2018-11-25T05:26:25.236Z,57.30
2018-11-25T05:26:56.328Z,57.30
2018-11-25T05:27:27.412Z,57.30
2018-11-25T05:27:58.496Z,57.30
2018-11-25T05:28:29.589Z,57.30
2018-11-25T05:29:00.688Z,57.30
2018-11-25T05:29:31.780Z,57.20
2018-11-25T05:30:02.871Z,57.20
2018-11-25T05:30:33.977Z,57.30
2018-11-25T05:31:05.064Z,57.20
2018-11-25T05:31:36.153Z,57.20
2018-11-25T05:32:07.236Z,57.20
2018-11-25T05:32:38.321Z,57.20
2018-11-25T05:33:09.405Z,57.20
2018-11-25T05:33:40.489Z,57.20
2018-11-25T05:34:11.573Z,57.20
2018-11-25T05:34:42.668Z,57.20
2018-11-25T05:35:13.765Z,57.20
2018-11-25T05:35:44.865Z,57.20
2018-11-25T05:36:15.945Z,57.20
2018-11-25T05:36:47.129Z,57.20
2018-11-25T05:37:18.209Z,57.20
2018-11-25T05:37:49.391Z,57.20
2018-11-25T05:38:20.474Z,57.20
2018-11-25T05:38:51.565Z,57.20
2018-11-25T05:39:22.669Z,57.20
2018-11-25T05:39:53.757Z,57.20
2018-11-25T05:40:24.851Z,57.20
2018-11-25T05:40:55.941Z,57.20
2018-11-25T05:41:27.039Z,57.20
2018-11-25T05:41:58.143Z,57.20
2018-11-25T05:42:29.229Z,57.20
2018-11-25T05:43:00.313Z,57.30
2018-11-25T05:43:31.409Z,57.30
2018-11-25T05:44:02.521Z,57.20
2018-11-25T05:44:33.646Z,57.20
2018-11-25T05:45:04.738Z,57.20
2018-11-25T05:45:35.871Z,57.20
2018-11-25T05:46:06.955Z,57.20
2018-11-25T05:46:38.046Z,57.20
2018-11-25T05:47:09.131Z,57.20
2018-11-25T05:47:40.230Z,57.20
2018-11-25T05:48:11.327Z,57.20
2018-11-25T05:48:42.414Z,57.20
2018-11-25T05:49:13.510Z,57.20
2018-11-25T05:49:44.604Z,57.20
2018-11-25T05:50:15.690Z,57.20
2018-11-25T05:50:46.776Z,57.20
2018-11-25T05:51:17.863Z,57.10
2018-11-25T05:51:48.955Z,57.20
2018-11-25T05:52:20.048Z,57.10
2018-11-25T05:52:51.141Z,57.20
2018-11-25T05:53:22.216Z,57.20
2018-11-25T05:53:53.311Z,57.10
2018-11-25T05:54:24.420Z,57.10
2018-11-25T05:54:55.504Z,57.10
2018-11-25T05:55:26.596Z,57.10
2018-11-25T05:55:57.678Z,57.10
2018-11-25T05:56:28.755Z,57.10
2018-11-25T05:56:59.865Z,57.10
2018-11-25T05:57:30.952Z,57.10
2018-11-25T05:58:02.033Z,57.10
2018-11-25T05:58:33.125Z,57.10
2018-11-25T05:59:04.213Z,57.20
2018-11-25T05:59:35.398Z,57.10
2018-11-25T06:00:06.485Z,57.20
2018-11-25T06:00:37.568Z,57.20
2018-11-25T06:01:08.664Z,57.10
2018-11-25T06:01:39.749Z,57.10
2018-11-25T06:02:10.829Z,57.10
2018-11-25T06:02:41.921Z,57.20
2018-11-25T06:03:13.022Z,57.20
2018-11-25T06:03:44.107Z,57.20
2018-11-25T06:04:15.191Z,57.20
2018-11-25T06:04:46.275Z,57.20
2018-11-25T06:05:17.361Z,57.20
2018-11-25T06:05:48.442Z,57.20
2018-11-25T06:06:19.526Z,57.20
2018-11-25T06:06:50.618Z,57.20
2018-11-25T06:07:21.706Z,57.20
2018-11-25T06:07:52.798Z,57.20
2018-11-25T06:08:23.882Z,57.20
2018-11-25T06:08:54.982Z,57.20
2018-11-25T06:09:26.071Z,57.10
2018-11-25T06:09:57.169Z,57.20
2018-11-25T06:10:28.266Z,57.20
2018-11-25T06:10:59.352Z,57.20
2018-11-25T06:11:30.439Z,57.20
2018-11-25T06:12:01.528Z,57.20
2018-11-25T06:12:32.615Z,57.20
2018-11-25T06:13:03.702Z,57.30
2018-11-25T06:13:34.788Z,57.20
2018-11-25T06:14:05.883Z,57.20
2018-11-25T06:14:37.043Z,57.20
2018-11-25T06:15:08.135Z,57.20
2018-11-25T06:15:39.226Z,57.20
2018-11-25T06:16:10.320Z,57.20
2018-11-25T06:16:41.407Z,57.20
2018-11-25T06:17:12.500Z,57.20
2018-11-25T06:17:43.597Z,57.20
2018-11-25T06:18:14.700Z,57.20
2018-11-25T06:18:45.788Z,57.20
2018-11-25T06:19:16.904Z,57.10
2018-11-25T06:19:48.005Z,57.10
2018-11-25T06:20:19.096Z,57.20
2018-11-25T06:20:50.184Z,57.10
2018-11-25T06:21:21.277Z,57.20
2018-11-25T06:21:52.364Z,57.10
2018-11-25T06:22:23.497Z,57.20
2018-11-25T06:22:54.564Z,57.40
2018-11-25T06:23:25.644Z,57.10
2018-11-25T06:23:56.728Z,57.10
2018-11-25T06:24:27.835Z,57.10
2018-11-25T06:24:58.937Z,57.10
2018-11-25T06:25:30.026Z,57.10
2018-11-25T06:26:01.108Z,57.10
2018-11-25T06:26:32.209Z,57.10
2018-11-25T06:27:03.289Z,57.10
2018-11-25T06:27:38.370Z,57.10
2018-11-25T06:28:05.505Z,57.20
2018-11-25T06:28:36.601Z,57.10
2018-11-25T06:29:07.685Z,57.10
2018-11-25T06:29:38.793Z,57.10
2018-11-25T06:30:09.882Z,57.00
2018-11-25T06:30:40.971Z,57.00
2018-11-25T06:31:12.055Z,57.00
2018-11-25T06:31:43.134Z,57.10
2018-11-25T06:32:14.222Z,57.00
2018-11-25T06:32:45.313Z,57.10
2018-11-25T06:33:16.408Z,57.00
2018-11-25T06:33:47.503Z,57.00
2018-11-25T06:34:18.591Z,57.10
2018-11-25T06:34:49.706Z,57.10
2018-11-25T06:35:20.799Z,57.10
2018-11-25T06:35:51.888Z,57.10
2018-11-25T06:36:22.981Z,57.10
2018-11-25T06:36:54.066Z,57.10
2018-11-25T06:37:25.162Z,57.80
2018-11-25T06:37:56.252Z,57.00
2018-11-25T06:38:27.337Z,57.10
2018-11-25T06:38:58.443Z,57.10
2018-11-25T06:39:29.530Z,57.10
2018-11-25T06:40:00.651Z,57.00
2018-11-25T06:40:31.731Z,57.00